首页
METAR-TAF:

METAR-TAF

机场 :

Marham, 英格兰

纬度: 52-39N, 经度: 000-34E, 海拔: 23米

当前天气观测

该预报发布于20分钟前的18:22 UTC
风速4节,风向西
温度 13°C
湿度 58%
气压 1000 hPa
能见度10公里或以上
少量云层高于3500英尺
多云层高于5000英尺

METAR: EGYM 041822Z 27004KT 9999 FEW035 BKN050 13/05 Q1000 TEMPO 7000 SHRA BKN025TCU RMK BLU TEMPO WHT

时间: 19:42 (18:42 UTC)

预报

该预报发布于44分钟前的17:58 UTC
预报有效从04日的 18点(UTC)到 05日的 02点(UTC)
风速6节,风向西北
能见度10公里或以上
多云层高于2500英尺
几率 30% :
短暂存在
从 04日的 18点(UTC)到 04日的 21点(UTC)
能見度: 7000
多云层高于2500英尺, 塔状积云.
阵雨
短暂存在
从 04日的 22点(UTC)到 05日的 02点(UTC)
能見度: 4000
多云层高于1200英尺, 塔状积云.
阵雨

TAF: EGYM 041758Z 0418/0502 31006KT 9999 BKN025 PROB30 TEMPO 0418/0421 7000 SHRA BKN025TCU TEMPO 0422/0502 4000 SHRA BKN012TCU

超过4000个机场的气象观测和天气预报(METAR&TAF报告)。

可查询的气象台以黄色和红色小点在地图上表示。

将鼠标移到小点上方,可查看气象台名称。

然后点击查看天气观测和预报。

如需切换地图:点击带黑十字的绿色按钮放大地图;点击带横线的绿色按钮缩小地图;或者点击绿色箭头查看邻近地区的地图。


METAR-TAF: